sensor_id;sensor_type;location;lat;lon;timestamp;P1;durP1;ratioP1;P2;durP2;ratioP2
3278;SDS011;1651;50.940;6.888;2023-04-03T00:01:16;3.72;;;3.42;;
3278;SDS011;1651;50.940;6.888;2023-04-03T00:03:42;6.35;;;4.40;;
3278;SDS011;1651;50.940;6.888;2023-04-03T00:06:09;4.38;;;3.63;;
3278;SDS011;1651;50.940;6.888;2023-04-03T00:08:36;5.13;;;4.20;;
3278;SDS011;1651;50.940;6.888;2023-04-03T00:11:02;5.53;;;4.55;;
3278;SDS011;1651;50.940;6.888;2023-04-03T00:13:29;5.00;;;3.45;;
3278;SDS011;1651;50.940;6.888;2023-04-03T00:15:55;5.32;;;4.80;;
3278;SDS011;1651;50.940;6.888;2023-04-03T00:18:21;5.10;;;4.60;;
3278;SDS011;1651;50.940;6.888;2023-04-03T00:20:49;6.55;;;5.07;;
3278;SDS011;1651;50.940;6.888;2023-04-03T00:23:15;6.72;;;4.13;;
3278;SDS011;1651;50.940;6.888;2023-04-03T00:25:42;6.22;;;4.90;;
3278;SDS011;1651;50.940;6.888;2023-04-03T00:28:08;7.07;;;4.65;;
3278;SDS011;1651;50.940;6.888;2023-04-03T00:30:34;6.38;;;4.95;;
3278;SDS011;1651;50.940;6.888;2023-04-03T00:33:01;6.30;;;4.60;;
3278;SDS011;1651;50.940;6.888;2023-04-03T00:35:28;5.43;;;4.78;;
3278;SDS011;1651;50.940;6.888;2023-04-03T00:37:55;5.30;;;4.80;;
3278;SDS011;1651;50.940;6.888;2023-04-03T00:40:25;7.32;;;5.22;;
3278;SDS011;1651;50.940;6.888;2023-04-03T00:42:53;5.00;;;4.60;;
3278;SDS011;1651;50.940;6.888;2023-04-03T00:45:26;5.70;;;5.10;;
3278;SDS011;1651;50.940;6.888;2023-04-03T00:47:53;7.28;;;4.88;;
3278;SDS011;1651;50.940;6.888;2023-04-03T00:50:20;5.55;;;4.85;;
3278;SDS011;1651;50.940;6.888;2023-04-03T00:52:48;7.00;;;4.35;;
3278;SDS011;1651;50.940;6.888;2023-04-03T00:55:15;4.18;;;3.47;;
3278;SDS011;1651;50.940;6.888;2023-04-03T00:57:42;6.72;;;4.97;;
3278;SDS011;1651;50.940;6.888;2023-04-03T01:00:09;5.30;;;4.40;;
3278;SDS011;1651;50.940;6.888;2023-04-03T01:02:35;5.22;;;4.75;;
3278;SDS011;1651;50.940;6.888;2023-04-03T01:05:02;6.15;;;4.30;;
3278;SDS011;1651;50.940;6.888;2023-04-03T01:07:31;5.40;;;4.70;;
3278;SDS011;1651;50.940;6.888;2023-04-03T01:10:00;6.20;;;4.50;;
3278;SDS011;1651;50.940;6.888;2023-04-03T01:12:27;5.60;;;5.10;;
3278;SDS011;1651;50.940;6.888;2023-04-03T01:14:55;6.30;;;5.25;;
3278;SDS011;1651;50.940;6.888;2023-04-03T01:17:24;9.05;;;5.05;;
3278;SDS011;1651;50.940;6.888;2023-04-03T01:19:57;6.85;;;5.05;;
3278;SDS011;1651;50.940;6.888;2023-04-03T01:22:28;5.10;;;4.47;;
3278;SDS011;1651;50.940;6.888;2023-04-03T01:24:56;7.50;;;5.28;;
3278;SDS011;1651;50.940;6.888;2023-04-03T01:27:23;6.87;;;4.67;;
3278;SDS011;1651;50.940;6.888;2023-04-03T01:29:49;6.18;;;4.55;;
3278;SDS011;1651;50.940;6.888;2023-04-03T01:32:16;6.40;;;5.00;;
3278;SDS011;1651;50.940;6.888;2023-04-03T01:34:42;6.55;;;5.30;;
3278;SDS011;1651;50.940;6.888;2023-04-03T01:37:08;7.32;;;5.55;;
3278;SDS011;1651;50.940;6.888;2023-04-03T01:39:34;6.82;;;4.60;;
3278;SDS011;1651;50.940;6.888;2023-04-03T01:42:00;6.30;;;5.68;;
3278;SDS011;1651;50.940;6.888;2023-04-03T01:44:26;7.32;;;6.13;;
3278;SDS011;1651;50.940;6.888;2023-04-03T01:46:52;5.90;;;5.30;;
3278;SDS011;1651;50.940;6.888;2023-04-03T01:49:19;5.47;;;4.37;;
3278;SDS011;1651;50.940;6.888;2023-04-03T01:51:45;5.95;;;5.20;;
3278;SDS011;1651;50.940;6.888;2023-04-03T01:54:13;8.33;;;5.80;;
3278;SDS011;1651;50.940;6.888;2023-04-03T01:56:39;6.38;;;5.50;;
3278;SDS011;1651;50.940;6.888;2023-04-03T01:59:05;5.28;;;4.75;;
3278;SDS011;1651;50.940;6.888;2023-04-03T02:01:32;5.90;;;5.30;;
3278;SDS011;1651;50.940;6.888;2023-04-03T02:03:58;5.10;;;4.60;;
3278;SDS011;1651;50.940;6.888;2023-04-03T02:06:24;6.65;;;4.93;;
3278;SDS011;1651;50.940;6.888;2023-04-03T02:08:51;7.75;;;6.13;;
3278;SDS011;1651;50.940;6.888;2023-04-03T02:11:16;6.03;;;5.07;;
3278;SDS011;1651;50.940;6.888;2023-04-03T02:13:42;6.65;;;5.20;;
3278;SDS011;1651;50.940;6.888;2023-04-03T02:16:09;8.60;;;5.13;;
3278;SDS011;1651;50.940;6.888;2023-04-03T02:18:36;6.45;;;5.43;;
3278;SDS011;1651;50.940;6.888;2023-04-03T02:21:02;6.30;;;5.55;;
3278;SDS011;1651;50.940;6.888;2023-04-03T02:23:28;6.25;;;5.35;;
3278;SDS011;1651;50.940;6.888;2023-04-03T02:26:02;5.70;;;5.20;;
3278;SDS011;1651;50.940;6.888;2023-04-03T02:28:28;7.82;;;5.40;;
3278;SDS011;1651;50.940;6.888;2023-04-03T02:30:55;6.63;;;5.95;;
3278;SDS011;1651;50.940;6.888;2023-04-03T02:33:22;6.60;;;5.93;;
3278;SDS011;1651;50.940;6.888;2023-04-03T02:35:52;5.88;;;4.85;;
3278;SDS011;1651;50.940;6.888;2023-04-03T02:38:19;6.32;;;5.45;;
3278;SDS011;1651;50.940;6.888;2023-04-03T02:40:45;10.20;;;6.85;;
3278;SDS011;1651;50.940;6.888;2023-04-03T02:43:11;6.57;;;5.87;;
3278;SDS011;1651;50.940;6.888;2023-04-03T02:45:37;6.20;;;5.60;;
3278;SDS011;1651;50.940;6.888;2023-04-03T02:48:03;6.97;;;6.15;;
3278;SDS011;1651;50.940;6.888;2023-04-03T02:50:29;8.00;;;6.10;;
3278;SDS011;1651;50.940;6.888;2023-04-03T02:52:58;6.88;;;6.18;;
3278;SDS011;1651;50.940;6.888;2023-04-03T02:55:24;6.97;;;6.20;;
3278;SDS011;1651;50.940;6.888;2023-04-03T02:57:52;9.43;;;6.10;;
3278;SDS011;1651;50.940;6.888;2023-04-03T03:00:20;8.55;;;6.13;;
3278;SDS011;1651;50.940;6.888;2023-04-03T03:02:48;10.32;;;6.55;;
3278;SDS011;1651;50.940;6.888;2023-04-03T03:05:14;9.60;;;6.93;;
3278;SDS011;1651;50.940;6.888;2023-04-03T03:07:41;7.43;;;6.47;;
3278;SDS011;1651;50.940;6.888;2023-04-03T03:10:08;7.85;;;6.65;;
3278;SDS011;1651;50.940;6.888;2023-04-03T03:12:34;7.43;;;6.82;;
3278;SDS011;1651;50.940;6.888;2023-04-03T03:15:02;8.02;;;6.90;;
3278;SDS011;1651;50.940;6.888;2023-04-03T03:17:28;12.65;;;6.30;;
3278;SDS011;1651;50.940;6.888;2023-04-03T03:19:55;11.68;;;6.85;;
3278;SDS011;1651;50.940;6.888;2023-04-03T03:22:21;9.32;;;6.45;;
3278;SDS011;1651;50.940;6.888;2023-04-03T03:24:49;9.73;;;7.03;;
3278;SDS011;1651;50.940;6.888;2023-04-03T03:27:15;10.23;;;6.72;;
3278;SDS011;1651;50.940;6.888;2023-04-03T03:29:41;8.90;;;7.25;;
3278;SDS011;1651;50.940;6.888;2023-04-03T03:32:07;7.20;;;6.50;;
3278;SDS011;1651;50.940;6.888;2023-04-03T03:34:36;8.23;;;6.63;;
3278;SDS011;1651;50.940;6.888;2023-04-03T03:37:02;12.02;;;6.72;;
3278;SDS011;1651;50.940;6.888;2023-04-03T03:39:28;9.68;;;6.50;;
3278;SDS011;1651;50.940;6.888;2023-04-03T03:41:54;7.07;;;6.38;;
3278;SDS011;1651;50.940;6.888;2023-04-03T03:44:20;11.45;;;6.55;;
3278;SDS011;1651;50.940;6.888;2023-04-03T03:46:47;10.77;;;8.05;;
3278;SDS011;1651;50.940;6.888;2023-04-03T03:49:13;9.48;;;6.72;;
3278;SDS011;1651;50.940;6.888;2023-04-03T03:51:39;10.10;;;6.13;;
3278;SDS011;1651;50.940;6.888;2023-04-03T03:54:05;7.30;;;6.03;;
3278;SDS011;1651;50.940;6.888;2023-04-03T03:56:32;5.85;;;5.35;;
3278;SDS011;1651;50.940;6.888;2023-04-03T03:58:58;10.40;;;5.53;;
3278;SDS011;1651;50.940;6.888;2023-04-03T04:01:24;7.38;;;5.75;;
3278;SDS011;1651;50.940;6.888;2023-04-03T04:03:50;6.82;;;5.43;;
3278;SDS011;1651;50.940;6.888;2023-04-03T04:06:21;7.78;;;5.25;;
3278;SDS011;1651;50.940;6.888;2023-04-03T04:08:48;7.43;;;5.32;;
3278;SDS011;1651;50.940;6.888;2023-04-03T04:11:14;7.28;;;5.03;;
3278;SDS011;1651;50.940;6.888;2023-04-03T04:13:40;7.63;;;5.60;;
3278;SDS011;1651;50.940;6.888;2023-04-03T04:16:06;6.55;;;4.82;;
3278;SDS011;1651;50.940;6.888;2023-04-03T04:18:33;9.30;;;5.40;;
3278;SDS011;1651;50.940;6.888;2023-04-03T04:20:59;5.35;;;4.65;;
3278;SDS011;1651;50.940;6.888;2023-04-03T04:23:25;10.15;;;4.68;;
3278;SDS011;1651;50.940;6.888;2023-04-03T04:25:59;6.93;;;5.07;;
3278;SDS011;1651;50.940;6.888;2023-04-03T04:28:41;4.97;;;4.40;;
3278;SDS011;1651;50.940;6.888;2023-04-03T04:31:09;7.35;;;4.60;;
3278;SDS011;1651;50.940;6.888;2023-04-03T04:33:35;6.57;;;4.78;;
3278;SDS011;1651;50.940;6.888;2023-04-03T04:36:01;8.27;;;4.43;;
3278;SDS011;1651;50.940;6.888;2023-04-03T04:38:27;5.10;;;3.65;;
3278;SDS011;1651;50.940;6.888;2023-04-03T04:40:53;4.90;;;4.50;;
3278;SDS011;1651;50.940;6.888;2023-04-03T04:43:19;5.03;;;4.53;;
3278;SDS011;1651;50.940;6.888;2023-04-03T04:45:46;5.70;;;3.83;;
3278;SDS011;1651;50.940;6.888;2023-04-03T04:48:12;9.02;;;5.05;;
3278;SDS011;1651;50.940;6.888;2023-04-03T04:50:39;7.65;;;4.00;;
3278;SDS011;1651;50.940;6.888;2023-04-03T04:53:08;4.78;;;3.28;;
3278;SDS011;1651;50.940;6.888;2023-04-03T04:55:34;3.77;;;3.37;;
3278;SDS011;1651;50.940;6.888;2023-04-03T04:58:01;3.30;;;2.97;;
3278;SDS011;1651;50.940;6.888;2023-04-03T05:00:27;3.00;;;2.70;;
3278;SDS011;1651;50.940;6.888;2023-04-03T05:02:53;3.37;;;3.07;;
3278;SDS011;1651;50.940;6.888;2023-04-03T05:05:19;2.88;;;2.58;;
3278;SDS011;1651;50.940;6.888;2023-04-03T05:07:45;3.70;;;2.63;;
3278;SDS011;1651;50.940;6.888;2023-04-03T05:10:12;3.70;;;2.45;;
3278;SDS011;1651;50.940;6.888;2023-04-03T05:12:46;4.75;;;2.38;;
3278;SDS011;1651;50.940;6.888;2023-04-03T05:15:12;3.33;;;2.47;;
3278;SDS011;1651;50.940;6.888;2023-04-03T05:17:38;2.40;;;2.20;;
3278;SDS011;1651;50.940;6.888;2023-04-03T05:20:05;6.10;;;3.15;;
3278;SDS011;1651;50.940;6.888;2023-04-03T05:22:31;19.83;;;4.97;;
3278;SDS011;1651;50.940;6.888;2023-04-03T05:25:03;3.08;;;2.78;;
3278;SDS011;1651;50.940;6.888;2023-04-03T05:27:29;6.18;;;3.40;;
3278;SDS011;1651;50.940;6.888;2023-04-03T05:29:57;12.98;;;4.88;;
3278;SDS011;1651;50.940;6.888;2023-04-03T05:32:24;6.38;;;3.45;;
3278;SDS011;1651;50.940;6.888;2023-04-03T05:34:52;11.80;;;4.15;;
3278;SDS011;1651;50.940;6.888;2023-04-03T05:37:21;4.72;;;2.40;;
3278;SDS011;1651;50.940;6.888;2023-04-03T05:39:47;15.23;;;4.30;;
3278;SDS011;1651;50.940;6.888;2023-04-03T05:42:14;8.13;;;3.17;;
3278;SDS011;1651;50.940;6.888;2023-04-03T05:44:40;5.03;;;3.75;;
3278;SDS011;1651;50.940;6.888;2023-04-03T05:47:06;3.63;;;2.70;;
3278;SDS011;1651;50.940;6.888;2023-04-03T05:49:32;7.55;;;3.20;;
3278;SDS011;1651;50.940;6.888;2023-04-03T05:51:59;8.32;;;2.88;;
3278;SDS011;1651;50.940;6.888;2023-04-03T05:54:26;3.50;;;2.97;;
3278;SDS011;1651;50.940;6.888;2023-04-03T05:56:52;4.60;;;3.08;;
3278;SDS011;1651;50.940;6.888;2023-04-03T05:59:19;3.95;;;3.55;;
3278;SDS011;1651;50.940;6.888;2023-04-03T06:01:46;3.15;;;2.63;;
3278;SDS011;1651;50.940;6.888;2023-04-03T06:04:12;3.00;;;2.80;;
3278;SDS011;1651;50.940;6.888;2023-04-03T06:06:52;3.28;;;2.55;;
3278;SDS011;1651;50.940;6.888;2023-04-03T06:09:20;5.13;;;3.28;;
3278;SDS011;1651;50.940;6.888;2023-04-03T06:11:46;5.00;;;3.10;;
3278;SDS011;1651;50.940;6.888;2023-04-03T06:14:12;4.90;;;3.33;;
3278;SDS011;1651;50.940;6.888;2023-04-03T06:16:39;7.45;;;3.15;;
3278;SDS011;1651;50.940;6.888;2023-04-03T06:19:07;7.35;;;2.53;;
3278;SDS011;1651;50.940;6.888;2023-04-03T06:21:33;2.40;;;2.20;;
3278;SDS011;1651;50.940;6.888;2023-04-03T06:24:00;5.82;;;3.80;;
3278;SDS011;1651;50.940;6.888;2023-04-03T06:26:27;5.25;;;3.00;;
3278;SDS011;1651;50.940;6.888;2023-04-03T06:28:55;4.50;;;3.20;;
3278;SDS011;1651;50.940;6.888;2023-04-03T06:31:21;4.18;;;2.85;;
3278;SDS011;1651;50.940;6.888;2023-04-03T06:33:47;2.85;;;2.65;;
3278;SDS011;1651;50.940;6.888;2023-04-03T06:36:13;5.55;;;3.50;;
3278;SDS011;1651;50.940;6.888;2023-04-03T06:38:40;3.38;;;3.08;;
3278;SDS011;1651;50.940;6.888;2023-04-03T06:41:06;9.13;;;4.50;;
3278;SDS011;1651;50.940;6.888;2023-04-03T06:43:32;4.13;;;2.50;;
3278;SDS011;1651;50.940;6.888;2023-04-03T06:45:59;4.30;;;2.55;;
3278;SDS011;1651;50.940;6.888;2023-04-03T06:48:25;2.80;;;2.45;;
3278;SDS011;1651;50.940;6.888;2023-04-03T06:50:51;3.80;;;3.40;;
3278;SDS011;1651;50.940;6.888;2023-04-03T06:53:17;3.08;;;2.53;;
3278;SDS011;1651;50.940;6.888;2023-04-03T06:55:43;2.73;;;2.40;;
3278;SDS011;1651;50.940;6.888;2023-04-03T06:58:09;3.00;;;2.70;;
3278;SDS011;1651;50.940;6.888;2023-04-03T07:00:35;2.50;;;2.30;;
3278;SDS011;1651;50.940;6.888;2023-04-03T07:03:01;3.45;;;2.22;;
3278;SDS011;1651;50.940;6.888;2023-04-03T07:05:28;5.30;;;1.90;;
3278;SDS011;1651;50.940;6.888;2023-04-03T07:07:54;7.63;;;1.90;;
3278;SDS011;1651;50.940;6.888;2023-04-03T07:10:20;1.37;;;1.27;;
3278;SDS011;1651;50.940;6.888;2023-04-03T07:12:46;3.57;;;2.40;;
3278;SDS011;1651;50.940;6.888;2023-04-03T07:15:12;2.40;;;1.60;;
3278;SDS011;1651;50.940;6.888;2023-04-03T07:17:39;2.93;;;2.07;;
3278;SDS011;1651;50.940;6.888;2023-04-03T07:20:05;3.33;;;1.43;;
3278;SDS011;1651;50.940;6.888;2023-04-03T07:22:32;2.60;;;1.17;;
3278;SDS011;1651;50.940;6.888;2023-04-03T07:25:00;3.00;;;2.20;;
3278;SDS011;1651;50.940;6.888;2023-04-03T07:27:26;4.63;;;2.40;;
3278;SDS011;1651;50.940;6.888;2023-04-03T07:29:52;4.50;;;1.70;;
3278;SDS011;1651;50.940;6.888;2023-04-03T07:32:20;4.00;;;1.73;;
3278;SDS011;1651;50.940;6.888;2023-04-03T07:34:47;2.17;;;1.50;;
3278;SDS011;1651;50.940;6.888;2023-04-03T07:37:17;4.40;;;1.70;;
3278;SDS011;1651;50.940;6.888;2023-04-03T07:39:44;3.80;;;1.90;;
3278;SDS011;1651;50.940;6.888;2023-04-03T07:42:10;5.90;;;1.93;;
3278;SDS011;1651;50.940;6.888;2023-04-03T07:44:37;4.83;;;2.50;;
3278;SDS011;1651;50.940;6.888;2023-04-03T07:47:03;10.43;;;2.97;;
3278;SDS011;1651;50.940;6.888;2023-04-03T07:49:29;3.17;;;1.20;;
3278;SDS011;1651;50.940;6.888;2023-04-03T07:51:57;11.27;;;2.50;;
3278;SDS011;1651;50.940;6.888;2023-04-03T07:54:23;3.30;;;2.40;;
3278;SDS011;1651;50.940;6.888;2023-04-03T07:56:49;2.67;;;1.20;;
3278;SDS011;1651;50.940;6.888;2023-04-03T07:59:15;13.37;;;3.67;;
3278;SDS011;1651;50.940;6.888;2023-04-03T08:01:41;2.77;;;1.83;;
3278;SDS011;1651;50.940;6.888;2023-04-03T08:04:07;1.40;;;0.90;;
3278;SDS011;1651;50.940;6.888;2023-04-03T08:06:34;5.60;;;1.73;;
3278;SDS011;1651;50.940;6.888;2023-04-03T08:09:02;5.67;;;2.30;;
3278;SDS011;1651;50.940;6.888;2023-04-03T08:11:29;3.87;;;1.30;;
3278;SDS011;1651;50.940;6.888;2023-04-03T08:13:55;2.17;;;1.60;;
3278;SDS011;1651;50.940;6.888;2023-04-03T08:16:22;2.23;;;1.40;;
3278;SDS011;1651;50.940;6.888;2023-04-03T08:18:51;4.20;;;2.40;;
3278;SDS011;1651;50.940;6.888;2023-04-03T08:21:17;4.13;;;2.20;;
3278;SDS011;1651;50.940;6.888;2023-04-03T08:23:47;2.27;;;1.50;;
3278;SDS011;1651;50.940;6.888;2023-04-03T08:26:15;11.33;;;2.57;;
3278;SDS011;1651;50.940;6.888;2023-04-03T08:28:41;3.53;;;1.80;;
3278;SDS011;1651;50.940;6.888;2023-04-03T08:31:12;3.33;;;1.60;;
3278;SDS011;1651;50.940;6.888;2023-04-03T08:33:39;2.37;;;1.50;;
3278;SDS011;1651;50.940;6.888;2023-04-03T08:36:07;2.77;;;1.60;;
3278;SDS011;1651;50.940;6.888;2023-04-03T08:38:33;5.37;;;1.60;;
3278;SDS011;1651;50.940;6.888;2023-04-03T08:41:04;3.03;;;1.80;;
3278;SDS011;1651;50.940;6.888;2023-04-03T08:43:48;3.30;;;1.83;;
3278;SDS011;1651;50.940;6.888;2023-04-03T08:46:28;3.83;;;1.53;;
3278;SDS011;1651;50.940;6.888;2023-04-03T08:48:59;3.43;;;1.90;;
3278;SDS011;1651;50.940;6.888;2023-04-03T08:51:25;3.33;;;1.67;;
3278;SDS011;1651;50.940;6.888;2023-04-03T08:53:58;2.10;;;1.50;;
3278;SDS011;1651;50.940;6.888;2023-04-03T08:56:27;1.17;;;1.00;;
3278;SDS011;1651;50.940;6.888;2023-04-03T08:59:00;4.03;;;1.53;;
3278;SDS011;1651;50.940;6.888;2023-04-03T09:01:29;2.57;;;1.57;;
3278;SDS011;1651;50.940;6.888;2023-04-03T09:04:00;3.67;;;1.67;;
3278;SDS011;1651;50.940;6.888;2023-04-03T09:06:27;2.40;;;1.27;;
3278;SDS011;1651;50.940;6.888;2023-04-03T09:21:59;1.53;;;1.10;;
3278;SDS011;1651;50.940;6.888;2023-04-03T09:24:27;1.90;;;1.70;;
3278;SDS011;1651;50.940;6.888;2023-04-03T09:29:21;2.90;;;2.00;;
3278;SDS011;1651;50.940;6.888;2023-04-03T09:31:50;4.30;;;1.80;;
3278;SDS011;1651;50.940;6.888;2023-04-03T09:36:53;2.80;;;1.47;;
3278;SDS011;1651;50.940;6.888;2023-04-03T09:39:20;1.90;;;1.30;;
3278;SDS011;1651;50.940;6.888;2023-04-03T09:42:00;2.17;;;1.40;;
3278;SDS011;1651;50.940;6.888;2023-04-03T09:44:37;2.90;;;1.40;;
3278;SDS011;1651;50.940;6.888;2023-04-03T09:49:48;2.23;;;1.10;;
3278;SDS011;1651;50.940;6.888;2023-04-03T09:52:18;4.20;;;1.40;;
3278;SDS011;1651;50.940;6.888;2023-04-03T09:54:45;1.40;;;1.30;;
3278;SDS011;1651;50.940;6.888;2023-04-03T09:57:13;3.05;;;1.65;;
3278;SDS011;1651;50.940;6.888;2023-04-03T09:59:41;3.10;;;1.20;;
3278;SDS011;1651;50.940;6.888;2023-04-03T10:04:41;4.60;;;1.50;;
3278;SDS011;1651;50.940;6.888;2023-04-03T10:09:59;2.30;;;1.00;;
3278;SDS011;1651;50.940;6.888;2023-04-03T10:12:26;1.80;;;1.20;;
3278;SDS011;1651;50.940;6.888;2023-04-03T10:25:04;2.00;;;0.93;;
3278;SDS011;1651;50.940;6.888;2023-04-03T10:27:42;1.17;;;0.80;;
3278;SDS011;1651;50.940;6.888;2023-04-03T10:30:17;2.20;;;1.27;;
3278;SDS011;1651;50.940;6.888;2023-04-03T10:32:58;1.20;;;0.90;;
3278;SDS011;1651;50.940;6.888;2023-04-03T10:43:41;1.10;;;1.00;;
3278;SDS011;1651;50.940;6.888;2023-04-03T10:46:33;2.50;;;1.27;;
3278;SDS011;1651;50.940;6.888;2023-04-03T10:51:45;1.00;;;0.90;;
3278;SDS011;1651;50.940;6.888;2023-04-03T10:54:15;1.10;;;0.93;;
3278;SDS011;1651;50.940;6.888;2023-04-03T10:59:26;4.05;;;1.45;;
3278;SDS011;1651;50.940;6.888;2023-04-03T11:02:14;2.00;;;1.10;;
3278;SDS011;1651;50.940;6.888;2023-04-03T11:04:40;2.40;;;1.15;;
3278;SDS011;1651;50.940;6.888;2023-04-03T11:07:10;1.92;;;1.27;;
3278;SDS011;1651;50.940;6.888;2023-04-03T11:09:37;1.42;;;1.08;;
3278;SDS011;1651;50.940;6.888;2023-04-03T11:14:43;1.65;;;1.15;;
3278;SDS011;1651;50.940;6.888;2023-04-03T11:19:44;1.80;;;1.50;;
3278;SDS011;1651;50.940;6.888;2023-04-03T11:22:16;1.92;;;0.88;;
3278;SDS011;1651;50.940;6.888;2023-04-03T11:24:50;2.35;;;1.13;;
3278;SDS011;1651;50.940;6.888;2023-04-03T11:27:18;2.15;;;1.00;;
3278;SDS011;1651;50.940;6.888;2023-04-03T11:29:49;1.38;;;1.00;;
3278;SDS011;1651;50.940;6.888;2023-04-03T11:34:46;1.35;;;1.00;;
3278;SDS011;1651;50.940;6.888;2023-04-03T11:37:16;2.15;;;0.95;;
3278;SDS011;1651;50.940;6.888;2023-04-03T11:39:54;0.80;;;0.80;;
3278;SDS011;1651;50.940;6.888;2023-04-03T11:44:47;3.93;;;1.07;;
3278;SDS011;1651;50.940;6.888;2023-04-03T11:47:43;1.40;;;1.07;;
3278;SDS011;1651;50.940;6.888;2023-04-03T11:50:02;2.63;;;1.20;;
3278;SDS011;1651;50.940;6.888;2023-04-03T12:13:41;1.20;;;0.90;;
3278;SDS011;1651;50.940;6.888;2023-04-03T12:16:31;1.40;;;1.10;;
3278;SDS011;1651;50.940;6.888;2023-04-03T12:24:01;1.08;;;0.90;;
3278;SDS011;1651;50.940;6.888;2023-04-03T12:26:30;1.20;;;0.80;;
3278;SDS011;1651;50.940;6.888;2023-04-03T12:28:57;2.10;;;1.42;;
3278;SDS011;1651;50.940;6.888;2023-04-03T12:31:25;1.70;;;1.15;;
3278;SDS011;1651;50.940;6.888;2023-04-03T12:34:01;3.45;;;1.20;;
3278;SDS011;1651;50.940;6.888;2023-04-03T12:39:04;3.92;;;1.10;;
3278;SDS011;1651;50.940;6.888;2023-04-03T12:41:40;2.40;;;2.20;;
3278;SDS011;1651;50.940;6.888;2023-04-03T12:44:21;2.40;;;1.50;;
3278;SDS011;1651;50.940;6.888;2023-04-03T12:46:52;1.00;;;0.80;;
3278;SDS011;1651;50.940;6.888;2023-04-03T12:51:50;2.75;;;1.20;;
3278;SDS011;1651;50.940;6.888;2023-04-03T12:56:42;1.73;;;1.47;;
3278;SDS011;1651;50.940;6.888;2023-04-03T12:59:21;1.93;;;0.90;;
3278;SDS011;1651;50.940;6.888;2023-04-03T13:01:55;1.45;;;0.90;;
3278;SDS011;1651;50.940;6.888;2023-04-03T13:04:21;1.20;;;0.98;;
3278;SDS011;1651;50.940;6.888;2023-04-03T13:06:47;1.35;;;1.10;;
3278;SDS011;1651;50.940;6.888;2023-04-03T13:09:21;3.67;;;1.10;;
3278;SDS011;1651;50.940;6.888;2023-04-03T13:11:48;1.45;;;1.10;;
3278;SDS011;1651;50.940;6.888;2023-04-03T13:14:21;4.78;;;1.92;;
3278;SDS011;1651;50.940;6.888;2023-04-03T13:19:21;1.30;;;0.80;;
3278;SDS011;1651;50.940;6.888;2023-04-03T13:21:48;1.83;;;1.20;;
3278;SDS011;1651;50.940;6.888;2023-04-03T13:24:16;3.08;;;0.98;;
3278;SDS011;1651;50.940;6.888;2023-04-03T13:26:42;1.00;;;0.90;;
3278;SDS011;1651;50.940;6.888;2023-04-03T13:29:30;0.82;;;0.80;;
3278;SDS011;1651;50.940;6.888;2023-04-03T13:31:55;1.38;;;1.08;;
3278;SDS011;1651;50.940;6.888;2023-04-03T13:34:22;3.67;;;1.45;;
3278;SDS011;1651;50.940;6.888;2023-04-03T13:37:00;1.98;;;1.65;;
3278;SDS011;1651;50.940;6.888;2023-04-03T13:39:38;2.00;;;1.27;;
3278;SDS011;1651;50.940;6.888;2023-04-03T13:42:29;1.65;;;1.30;;
3278;SDS011;1651;50.940;6.888;2023-04-03T13:47:41;1.80;;;1.20;;
3278;SDS011;1651;50.940;6.888;2023-04-03T13:52:59;1.55;;;1.00;;
3278;SDS011;1651;50.940;6.888;2023-04-03T13:55:27;3.67;;;1.10;;
3278;SDS011;1651;50.940;6.888;2023-04-03T13:57:56;1.90;;;1.08;;
3278;SDS011;1651;50.940;6.888;2023-04-03T14:02:55;4.13;;;1.20;;
3278;SDS011;1651;50.940;6.888;2023-04-03T14:05:21;1.80;;;1.33;;
3278;SDS011;1651;50.940;6.888;2023-04-03T14:07:49;3.35;;;1.85;;
3278;SDS011;1651;50.940;6.888;2023-04-03T14:10:15;3.43;;;1.27;;
3278;SDS011;1651;50.940;6.888;2023-04-03T14:12:42;1.17;;;1.08;;
3278;SDS011;1651;50.940;6.888;2023-04-03T14:15:16;1.75;;;1.10;;
3278;SDS011;1651;50.940;6.888;2023-04-03T14:17:42;1.20;;;0.90;;
3278;SDS011;1651;50.940;6.888;2023-04-03T14:20:18;1.20;;;1.10;;
3278;SDS011;1651;50.940;6.888;2023-04-03T14:22:46;1.83;;;1.20;;
3278;SDS011;1651;50.940;6.888;2023-04-03T14:25:15;1.30;;;1.10;;
3278;SDS011;1651;50.940;6.888;2023-04-03T14:27:42;3.15;;;1.45;;
3278;SDS011;1651;50.940;6.888;2023-04-03T14:30:13;1.75;;;1.20;;
3278;SDS011;1651;50.940;6.888;2023-04-03T14:32:40;2.10;;;1.67;;
3278;SDS011;1651;50.940;6.888;2023-04-03T14:35:06;1.45;;;1.30;;
3278;SDS011;1651;50.940;6.888;2023-04-03T14:37:33;1.70;;;1.38;;
3278;SDS011;1651;50.940;6.888;2023-04-03T14:40:00;3.90;;;1.40;;
3278;SDS011;1651;50.940;6.888;2023-04-03T14:42:30;1.50;;;1.30;;
3278;SDS011;1651;50.940;6.888;2023-04-03T14:44:58;2.23;;;1.43;;
3278;SDS011;1651;50.940;6.888;2023-04-03T14:47:25;1.43;;;1.20;;
3278;SDS011;1651;50.940;6.888;2023-04-03T14:49:53;3.20;;;1.13;;
3278;SDS011;1651;50.940;6.888;2023-04-03T14:54:47;7.77;;;1.80;;
3278;SDS011;1651;50.940;6.888;2023-04-03T14:57:14;2.70;;;1.27;;
3278;SDS011;1651;50.940;6.888;2023-04-03T14:59:41;1.40;;;1.27;;
3278;SDS011;1651;50.940;6.888;2023-04-03T15:02:11;2.43;;;1.30;;
3278;SDS011;1651;50.940;6.888;2023-04-03T15:04:46;2.10;;;0.97;;
3278;SDS011;1651;50.940;6.888;2023-04-03T15:07:12;2.00;;;1.30;;
3278;SDS011;1651;50.940;6.888;2023-04-03T15:09:38;1.30;;;1.03;;
3278;SDS011;1651;50.940;6.888;2023-04-03T15:12:04;0.80;;;0.80;;
3278;SDS011;1651;50.940;6.888;2023-04-03T15:14:31;1.77;;;1.40;;
3278;SDS011;1651;50.940;6.888;2023-04-03T15:16:57;1.90;;;0.97;;
3278;SDS011;1651;50.940;6.888;2023-04-03T15:19:23;3.50;;;1.77;;
3278;SDS011;1651;50.940;6.888;2023-04-03T15:21:49;5.88;;;1.30;;
3278;SDS011;1651;50.940;6.888;2023-04-03T15:24:16;3.93;;;1.30;;
3278;SDS011;1651;50.940;6.888;2023-04-03T15:26:42;3.07;;;1.50;;
3278;SDS011;1651;50.940;6.888;2023-04-03T15:29:08;2.60;;;0.97;;
3278;SDS011;1651;50.940;6.888;2023-04-03T15:31:34;3.10;;;1.33;;
3278;SDS011;1651;50.940;6.888;2023-04-03T15:34:00;1.70;;;1.23;;
3278;SDS011;1651;50.940;6.888;2023-04-03T15:36:26;2.80;;;1.10;;
3278;SDS011;1651;50.940;6.888;2023-04-03T15:38:52;2.80;;;1.40;;
3278;SDS011;1651;50.940;6.888;2023-04-03T15:41:18;2.23;;;1.53;;
3278;SDS011;1651;50.940;6.888;2023-04-03T15:43:44;2.63;;;1.67;;
3278;SDS011;1651;50.940;6.888;2023-04-03T15:46:10;0.90;;;0.77;;
3278;SDS011;1651;50.940;6.888;2023-04-03T15:48:38;3.23;;;1.10;;
3278;SDS011;1651;50.940;6.888;2023-04-03T15:51:05;2.35;;;1.50;;
3278;SDS011;1651;50.940;6.888;2023-04-03T15:53:31;2.20;;;1.17;;
3278;SDS011;1651;50.940;6.888;2023-04-03T15:55:58;1.97;;;1.47;;
3278;SDS011;1651;50.940;6.888;2023-04-03T15:58:24;3.67;;;1.80;;
3278;SDS011;1651;50.940;6.888;2023-04-03T16:00:50;1.37;;;1.27;;
3278;SDS011;1651;50.940;6.888;2023-04-03T16:03:18;3.73;;;1.70;;
3278;SDS011;1651;50.940;6.888;2023-04-03T16:05:45;2.80;;;1.33;;
3278;SDS011;1651;50.940;6.888;2023-04-03T16:08:11;4.10;;;1.67;;
3278;SDS011;1651;50.940;6.888;2023-04-03T16:10:38;3.03;;;1.50;;
3278;SDS011;1651;50.940;6.888;2023-04-03T16:13:04;2.23;;;1.33;;
3278;SDS011;1651;50.940;6.888;2023-04-03T16:15:30;1.50;;;1.10;;
3278;SDS011;1651;50.940;6.888;2023-04-03T16:17:57;1.30;;;1.20;;
3278;SDS011;1651;50.940;6.888;2023-04-03T16:20:24;1.83;;;1.10;;
3278;SDS011;1651;50.940;6.888;2023-04-03T16:22:51;1.23;;;1.10;;
3278;SDS011;1651;50.940;6.888;2023-04-03T16:25:17;3.10;;;1.30;;
3278;SDS011;1651;50.940;6.888;2023-04-03T16:27:44;3.95;;;1.60;;
3278;SDS011;1651;50.940;6.888;2023-04-03T16:30:10;2.05;;;1.15;;
3278;SDS011;1651;50.940;6.888;2023-04-03T16:32:37;2.90;;;1.30;;
3278;SDS011;1651;50.940;6.888;2023-04-03T16:35:04;4.43;;;1.60;;
3278;SDS011;1651;50.940;6.888;2023-04-03T16:37:30;3.83;;;1.58;;
3278;SDS011;1651;50.940;6.888;2023-04-03T16:39:56;3.00;;;1.37;;
3278;SDS011;1651;50.940;6.888;2023-04-03T16:42:23;1.55;;;1.20;;
3278;SDS011;1651;50.940;6.888;2023-04-03T16:44:54;4.35;;;1.10;;
3278;SDS011;1651;50.940;6.888;2023-04-03T16:47:21;3.50;;;1.30;;
3278;SDS011;1651;50.940;6.888;2023-04-03T16:49:50;1.93;;;1.10;;
3278;SDS011;1651;50.940;6.888;2023-04-03T16:52:17;1.60;;;1.33;;
3278;SDS011;1651;50.940;6.888;2023-04-03T16:54:43;1.73;;;1.13;;
3278;SDS011;1651;50.940;6.888;2023-04-03T16:57:10;4.80;;;1.77;;
3278;SDS011;1651;50.940;6.888;2023-04-03T16:59:35;1.27;;;1.00;;
3278;SDS011;1651;50.940;6.888;2023-04-03T17:02:03;2.30;;;1.50;;
3278;SDS011;1651;50.940;6.888;2023-04-03T17:04:29;1.00;;;0.90;;
3278;SDS011;1651;50.940;6.888;2023-04-03T17:06:55;3.57;;;1.50;;